sensor_id;sensor_type;location;lat;lon;timestamp;pressure;altitude;pressure_sealevel;temperature;humidity
40117;BME280;25829;50.228;18.936;2023-08-06T00:03:24;97290.69;;;17.63;91.59
40117;BME280;25829;50.228;18.936;2023-08-06T01:56:47;97019.72;;;18.19;89.15
40117;BME280;25829;50.228;18.936;2023-08-06T02:29:53;97022.44;;;18.32;88.20
40117;BME280;25829;50.228;18.936;2023-08-06T02:41:36;96976.34;;;18.27;87.99
40117;BME280;25829;50.228;18.936;2023-08-06T03:13:40;96959.44;;;18.31;87.91
40117;BME280;25829;50.228;18.936;2023-08-06T03:32:33;96956.47;;;18.33;87.54
40117;BME280;25829;50.228;18.936;2023-08-06T03:35:48;96951.31;;;18.23;88.03
40117;BME280;25829;50.228;18.936;2023-08-06T03:39:39;96945.00;;;18.19;88.49
40117;BME280;25829;50.228;18.936;2023-08-06T03:43:05;96948.03;;;18.12;88.78
40117;BME280;25829;50.228;18.936;2023-08-06T03:46:37;96933.31;;;18.14;88.99
40117;BME280;25829;50.228;18.936;2023-08-06T03:50:46;96928.47;;;18.16;89.10
40117;BME280;25829;50.228;18.936;2023-08-06T03:53:50;96930.03;;;18.17;89.07
40117;BME280;25829;50.228;18.936;2023-08-06T03:57:00;96929.06;;;18.13;89.17
40117;BME280;25829;50.228;18.936;2023-08-06T04:00:04;96933.31;;;18.14;89.37
40117;BME280;25829;50.228;18.936;2023-08-06T04:03:34;96929.34;;;18.12;89.48
40117;BME280;25829;50.228;18.936;2023-08-06T04:06:36;96925.97;;;18.06;89.71
40117;BME280;25829;50.228;18.936;2023-08-06T04:12:59;96932.09;;;18.07;89.69
40117;BME280;25829;50.228;18.936;2023-08-06T04:16:09;96931.81;;;18.08;89.95
40117;BME280;25829;50.228;18.936;2023-08-06T04:27:04;96917.91;;;18.11;89.88
40117;BME280;25829;50.228;18.936;2023-08-06T04:33:34;96910.94;;;18.10;90.43
40117;BME280;25829;50.228;18.936;2023-08-06T04:36:50;96896.25;;;18.13;90.16
40117;BME280;25829;50.228;18.936;2023-08-06T04:39:58;96891.09;;;18.16;90.23
40117;BME280;25829;50.228;18.936;2023-08-06T04:43:12;96879.84;;;18.20;90.27
40117;BME280;25829;50.228;18.936;2023-08-06T04:46:13;96883.03;;;18.22;90.43
40117;BME280;25829;50.228;18.936;2023-08-06T04:49:46;96881.63;;;18.24;89.96
40117;BME280;25829;50.228;18.936;2023-08-06T04:52:47;96887.47;;;18.26;90.05
40117;BME280;25829;50.228;18.936;2023-08-06T04:55:56;96884.19;;;18.29;89.84
40117;BME280;25829;50.228;18.936;2023-08-06T04:59:01;96887.34;;;18.31;89.45
40117;BME280;25829;50.228;18.936;2023-08-06T05:02:04;96880.25;;;18.27;89.03
40117;BME280;25829;50.228;18.936;2023-08-06T05:05:32;96886.06;;;18.15;88.44
40117;BME280;25829;50.228;18.936;2023-08-06T05:08:39;96888.81;;;18.10;88.42
40117;BME280;25829;50.228;18.936;2023-08-06T05:11:41;96881.97;;;18.04;87.86
40117;BME280;25829;50.228;18.936;2023-08-06T05:15:07;96879.13;;;18.00;87.90
40117;BME280;25829;50.228;18.936;2023-08-06T05:18:09;96877.31;;;17.96;87.67
40117;BME280;25829;50.228;18.936;2023-08-06T05:21:09;96873.44;;;17.88;87.44
40117;BME280;25829;50.228;18.936;2023-08-06T05:24:10;96855.94;;;17.82;87.24
40117;BME280;25829;50.228;18.936;2023-08-06T05:27:11;96863.22;;;17.76;87.07
40117;BME280;25829;50.228;18.936;2023-08-06T05:30:12;96873.47;;;17.69;86.91
40117;BME280;25829;50.228;18.936;2023-08-06T05:33:21;96866.88;;;17.66;86.94
40117;BME280;25829;50.228;18.936;2023-08-06T05:36:22;96866.16;;;17.61;86.62
40117;BME280;25829;50.228;18.936;2023-08-06T05:39:22;96864.75;;;17.50;86.53
40117;BME280;25829;50.228;18.936;2023-08-06T05:42:23;96861.16;;;17.40;86.52
40117;BME280;25829;50.228;18.936;2023-08-06T05:45:24;96862.91;;;17.31;86.60
40117;BME280;25829;50.228;18.936;2023-08-06T05:48:24;96855.34;;;17.19;86.54
40117;BME280;25829;50.228;18.936;2023-08-06T05:51:26;96840.22;;;17.15;86.70
40117;BME280;25829;50.228;18.936;2023-08-06T05:54:27;96849.84;;;17.11;86.48
40117;BME280;25829;50.228;18.936;2023-08-06T05:57:28;96845.47;;;17.01;86.26
40117;BME280;25829;50.228;18.936;2023-08-06T06:00:28;96834.88;;;16.96;86.38
40117;BME280;25829;50.228;18.936;2023-08-06T06:03:29;96829.09;;;16.89;86.15
40117;BME280;25829;50.228;18.936;2023-08-06T06:06:30;96828.63;;;16.87;86.69
40117;BME280;25829;50.228;18.936;2023-08-06T06:09:31;96828.41;;;16.83;86.38
40117;BME280;25829;50.228;18.936;2023-08-06T06:12:31;96824.72;;;16.79;86.13
40117;BME280;25829;50.228;18.936;2023-08-06T06:15:32;96830.13;;;16.74;85.90
40117;BME280;25829;50.228;18.936;2023-08-06T06:18:33;96824.63;;;16.65;85.82
40117;BME280;25829;50.228;18.936;2023-08-06T06:21:34;96817.03;;;16.59;85.88
40117;BME280;25829;50.228;18.936;2023-08-06T06:24:41;96812.31;;;16.50;85.82
40117;BME280;25829;50.228;18.936;2023-08-06T06:27:42;96814.75;;;16.47;85.93
40117;BME280;25829;50.228;18.936;2023-08-06T06:30:42;96809.50;;;16.42;85.90
40117;BME280;25829;50.228;18.936;2023-08-06T06:33:43;96814.66;;;16.33;85.86
40117;BME280;25829;50.228;18.936;2023-08-06T06:36:44;96827.25;;;16.27;85.59
40117;BME280;25829;50.228;18.936;2023-08-06T06:39:45;96829.19;;;16.17;85.60
40117;BME280;25829;50.228;18.936;2023-08-06T06:42:46;96819.41;;;16.12;86.00
40117;BME280;25829;50.228;18.936;2023-08-06T06:45:47;96797.34;;;16.12;86.18
40117;BME280;25829;50.228;18.936;2023-08-06T06:48:48;96783.50;;;16.10;86.37
40117;BME280;25829;50.228;18.936;2023-08-06T06:51:48;96792.56;;;16.09;86.29
40117;BME280;25829;50.228;18.936;2023-08-06T06:54:50;96787.88;;;16.00;86.25
40117;BME280;25829;50.228;18.936;2023-08-06T06:57:51;96780.28;;;15.89;86.48
40117;BME280;25829;50.228;18.936;2023-08-06T07:00:52;96768.94;;;15.83;86.64
40117;BME280;25829;50.228;18.936;2023-08-06T07:03:53;96755.63;;;15.83;86.95
40117;BME280;25829;50.228;18.936;2023-08-06T07:06:54;96753.47;;;15.85;86.78
40117;BME280;25829;50.228;18.936;2023-08-06T07:09:55;96751.91;;;15.84;86.80
40117;BME280;25829;50.228;18.936;2023-08-06T07:12:55;96745.28;;;15.82;86.72
40117;BME280;25829;50.228;18.936;2023-08-06T07:15:56;96749.34;;;15.74;86.66
40117;BME280;25829;50.228;18.936;2023-08-06T07:18:57;96762.75;;;15.64;86.42
40117;BME280;25829;50.228;18.936;2023-08-06T07:21:57;96788.31;;;15.60;86.56
40117;BME280;25829;50.228;18.936;2023-08-06T07:24:58;96798.19;;;15.54;86.39
40117;BME280;25829;50.228;18.936;2023-08-06T07:27:59;96814.97;;;15.49;86.74
40117;BME280;25829;50.228;18.936;2023-08-06T07:31:03;96823.25;;;15.48;86.86
40117;BME280;25829;50.228;18.936;2023-08-06T07:34:04;96829.59;;;15.47;86.57
40117;BME280;25829;50.228;18.936;2023-08-06T07:37:05;96830.47;;;15.37;86.22
40117;BME280;25829;50.228;18.936;2023-08-06T07:40:06;96802.38;;;15.31;86.59
40117;BME280;25829;50.228;18.936;2023-08-06T07:43:10;96781.44;;;15.19;86.20
40117;BME280;25829;50.228;18.936;2023-08-06T07:46:11;96794.25;;;15.12;86.70
40117;BME280;25829;50.228;18.936;2023-08-06T07:49:13;96808.63;;;15.11;86.73
40117;BME280;25829;50.228;18.936;2023-08-06T07:52:14;96807.53;;;15.12;86.66
40117;BME280;25829;50.228;18.936;2023-08-06T07:55:15;96817.09;;;15.13;86.77
40117;BME280;25829;50.228;18.936;2023-08-06T07:58:16;96822.91;;;15.15;86.69
40117;BME280;25829;50.228;18.936;2023-08-06T08:01:17;96826.66;;;15.14;86.84
40117;BME280;25829;50.228;18.936;2023-08-06T08:04:17;96822.13;;;15.15;86.63
40117;BME280;25829;50.228;18.936;2023-08-06T08:07:33;96798.22;;;15.15;86.32
40117;BME280;25829;50.228;18.936;2023-08-06T08:10:34;96764.81;;;15.08;86.45
40117;BME280;25829;50.228;18.936;2023-08-06T08:13:35;96782.91;;;15.06;86.37
40117;BME280;25829;50.228;18.936;2023-08-06T08:16:36;96815.81;;;15.05;86.83
40117;BME280;25829;50.228;18.936;2023-08-06T08:19:43;96835.72;;;15.08;86.45
40117;BME280;25829;50.228;18.936;2023-08-06T08:22:50;96817.91;;;15.08;86.65
40117;BME280;25829;50.228;18.936;2023-08-06T08:25:51;96804.09;;;15.12;86.64
40117;BME280;25829;50.228;18.936;2023-08-06T08:28:51;96803.53;;;15.15;86.50
40117;BME280;25829;50.228;18.936;2023-08-06T08:31:52;96798.47;;;15.18;86.77
40117;BME280;25829;50.228;18.936;2023-08-06T08:34:53;96785.41;;;15.22;86.62
40117;BME280;25829;50.228;18.936;2023-08-06T08:37:54;96775.59;;;15.27;86.56
40117;BME280;25829;50.228;18.936;2023-08-06T08:40:55;96788.03;;;15.32;86.45
40117;BME280;25829;50.228;18.936;2023-08-06T08:43:56;96796.53;;;15.34;85.95
40117;BME280;25829;50.228;18.936;2023-08-06T08:46:59;96812.47;;;15.34;85.97
40117;BME280;25829;50.228;18.936;2023-08-06T08:50:00;96807.16;;;15.34;85.88
40117;BME280;25829;50.228;18.936;2023-08-06T08:53:02;96814.81;;;15.36;85.78
40117;BME280;25829;50.228;18.936;2023-08-06T08:56:04;96811.66;;;15.33;85.61
40117;BME280;25829;50.228;18.936;2023-08-06T08:59:05;96816.16;;;15.33;85.40
40117;BME280;25829;50.228;18.936;2023-08-06T09:02:16;96812.47;;;15.34;85.87
40117;BME280;25829;50.228;18.936;2023-08-06T09:05:18;96803.13;;;15.37;85.81
40117;BME280;25829;50.228;18.936;2023-08-06T09:08:26;96788.19;;;15.41;85.90
40117;BME280;25829;50.228;18.936;2023-08-06T09:11:29;96793.81;;;15.39;85.56
40117;BME280;25829;50.228;18.936;2023-08-06T09:14:36;96800.69;;;15.40;85.67
40117;BME280;25829;50.228;18.936;2023-08-06T09:17:37;96808.41;;;15.42;85.23
40117;BME280;25829;50.228;18.936;2023-08-06T09:20:40;96794.59;;;15.40;85.20
40117;BME280;25829;50.228;18.936;2023-08-06T09:23:41;96790.06;;;15.40;85.10
40117;BME280;25829;50.228;18.936;2023-08-06T09:26:45;96783.19;;;15.39;85.00
40117;BME280;25829;50.228;18.936;2023-08-06T09:29:46;96769.19;;;15.28;84.96
40117;BME280;25829;50.228;18.936;2023-08-06T09:32:48;96755.91;;;15.23;84.96
40117;BME280;25829;50.228;18.936;2023-08-06T09:35:49;96775.34;;;15.19;85.04
40117;BME280;25829;50.228;18.936;2023-08-06T09:38:49;96784.09;;;15.19;85.32
40117;BME280;25829;50.228;18.936;2023-08-06T09:41:58;96784.41;;;15.18;85.52
40117;BME280;25829;50.228;18.936;2023-08-06T09:45:08;96783.59;;;15.17;85.12
40117;BME280;25829;50.228;18.936;2023-08-06T09:48:09;96785.47;;;15.17;85.53
40117;BME280;25829;50.228;18.936;2023-08-06T09:51:13;96794.47;;;15.21;85.55
40117;BME280;25829;50.228;18.936;2023-08-06T09:54:15;96792.84;;;15.25;85.40
40117;BME280;25829;50.228;18.936;2023-08-06T09:57:16;96801.59;;;15.30;86.00
40117;BME280;25829;50.228;18.936;2023-08-06T10:00:17;96801.00;;;15.33;85.55
40117;BME280;25829;50.228;18.936;2023-08-06T10:03:19;96804.19;;;15.36;85.64
40117;BME280;25829;50.228;18.936;2023-08-06T10:06:22;96799.66;;;15.41;85.65
40117;BME280;25829;50.228;18.936;2023-08-06T10:09:24;96803.31;;;15.45;85.32
40117;BME280;25829;50.228;18.936;2023-08-06T10:12:26;96805.19;;;15.45;85.29
40117;BME280;25829;50.228;18.936;2023-08-06T10:15:32;96805.19;;;15.45;85.42
40117;BME280;25829;50.228;18.936;2023-08-06T10:18:36;96814.28;;;15.39;84.77
40117;BME280;25829;50.228;18.936;2023-08-06T10:21:39;96811.09;;;15.37;85.28
40117;BME280;25829;50.228;18.936;2023-08-06T10:30:48;96833.38;;;15.41;85.03
40117;BME280;25829;50.228;18.936;2023-08-06T10:33:49;96838.44;;;15.37;85.14
40117;BME280;25829;50.228;18.936;2023-08-06T10:36:50;96846.66;;;15.41;85.17
40117;BME280;25829;50.228;18.936;2023-08-06T10:40:14;96836.00;;;15.46;84.92
40117;BME280;25829;50.228;18.936;2023-08-06T10:43:41;96848.22;;;15.47;84.81
40117;BME280;25829;50.228;18.936;2023-08-06T10:46:43;96846.88;;;15.49;84.66
40117;BME280;25829;50.228;18.936;2023-08-06T10:49:50;96850.31;;;15.50;84.99
40117;BME280;25829;50.228;18.936;2023-08-06T10:52:51;96849.22;;;15.51;85.05
40117;BME280;25829;50.228;18.936;2023-08-06T10:55:52;96842.09;;;15.46;84.78
40117;BME280;25829;50.228;18.936;2023-08-06T10:58:54;96838.13;;;15.44;84.84
40117;BME280;25829;50.228;18.936;2023-08-06T11:01:59;96835.25;;;15.40;84.82
40117;BME280;25829;50.228;18.936;2023-08-06T11:05:07;96846.72;;;15.36;84.73
40117;BME280;25829;50.228;18.936;2023-08-06T11:08:09;96856.03;;;15.33;84.81
40117;BME280;25829;50.228;18.936;2023-08-06T11:11:16;96867.72;;;15.32;85.18
40117;BME280;25829;50.228;18.936;2023-08-06T11:14:17;96877.84;;;15.25;84.99
40117;BME280;25829;50.228;18.936;2023-08-06T11:17:18;96884.22;;;15.24;85.17
40117;BME280;25829;50.228;18.936;2023-08-06T11:20:20;96884.22;;;15.24;85.02
40117;BME280;25829;50.228;18.936;2023-08-06T11:23:22;96883.16;;;15.20;84.88
40117;BME280;25829;50.228;18.936;2023-08-06T11:26:23;96892.22;;;15.19;84.92
40117;BME280;25829;50.228;18.936;2023-08-06T11:29:24;96895.16;;;15.17;84.84
40117;BME280;25829;50.228;18.936;2023-08-06T11:32:24;96889.63;;;15.08;84.89
40117;BME280;25829;50.228;18.936;2023-08-06T11:35:25;96882.50;;;15.04;85.29
40117;BME280;25829;50.228;18.936;2023-08-06T11:38:30;96872.91;;;15.08;85.56
40117;BME280;25829;50.228;18.936;2023-08-06T11:41:31;96876.34;;;15.14;85.47
40117;BME280;25829;50.228;18.936;2023-08-06T11:44:36;96880.28;;;15.16;85.38
40117;BME280;25829;50.228;18.936;2023-08-06T11:47:40;96880.75;;;15.23;85.57
40117;BME280;25829;50.228;18.936;2023-08-06T11:50:41;96881.06;;;15.27;85.38
40117;BME280;25829;50.228;18.936;2023-08-06T11:53:48;96879.69;;;15.29;85.54
40117;BME280;25829;50.228;18.936;2023-08-06T11:56:49;96887.34;;;15.36;85.59
40117;BME280;25829;50.228;18.936;2023-08-06T11:59:50;96888.13;;;15.42;85.36
40117;BME280;25829;50.228;18.936;2023-08-06T12:02:51;96892.09;;;15.44;85.21
40117;BME280;25829;50.228;18.936;2023-08-06T12:05:54;96890.50;;;15.43;85.36
40117;BME280;25829;50.228;18.936;2023-08-06T12:08:54;96894.22;;;15.42;85.20
40117;BME280;25829;50.228;18.936;2023-08-06T12:11:55;96899.53;;;15.42;85.24
40117;BME280;25829;50.228;18.936;2023-08-06T12:14:56;96916.28;;;15.43;85.30
40117;BME280;25829;50.228;18.936;2023-08-06T12:17:57;96909.38;;;15.42;84.91
40117;BME280;25829;50.228;18.936;2023-08-06T12:20:57;96914.94;;;15.40;85.18
40117;BME280;25829;50.228;18.936;2023-08-06T12:23:59;96917.06;;;15.43;85.85
40117;BME280;25829;50.228;18.936;2023-08-06T12:27:00;96922.63;;;15.47;85.27
40117;BME280;25829;50.228;18.936;2023-08-06T12:30:03;96919.47;;;15.45;85.19
40117;BME280;25829;50.228;18.936;2023-08-06T12:33:04;96934.09;;;15.42;85.28
40117;BME280;25829;50.228;18.936;2023-08-06T12:36:05;96939.94;;;15.44;85.41
40117;BME280;25829;50.228;18.936;2023-08-06T12:39:06;96930.88;;;15.45;85.52
40117;BME280;25829;50.228;18.936;2023-08-06T12:42:06;96933.78;;;15.49;85.30
40117;BME280;25829;50.228;18.936;2023-08-06T12:45:09;96930.31;;;15.48;85.05
40117;BME280;25829;50.228;18.936;2023-08-06T12:48:10;96931.94;;;15.44;85.01
40117;BME280;25829;50.228;18.936;2023-08-06T12:51:11;96930.34;;;15.43;85.23
40117;BME280;25829;50.228;18.936;2023-08-06T12:54:11;96931.38;;;15.47;85.30
40117;BME280;25829;50.228;18.936;2023-08-06T12:57:12;96934.09;;;15.42;85.09
40117;BME280;25829;50.228;18.936;2023-08-06T13:00:13;96920.25;;;15.40;85.42
40117;BME280;25829;50.228;18.936;2023-08-06T13:03:14;96925.34;;;15.37;85.38
40117;BME280;25829;50.228;18.936;2023-08-06T13:06:14;96929.84;;;15.41;85.69
40117;BME280;25829;50.228;18.936;2023-08-06T13:09:15;96931.38;;;15.47;85.89
40117;BME280;25829;50.228;18.936;2023-08-06T13:12:16;96938.81;;;15.50;85.70
40117;BME280;25829;50.228;18.936;2023-08-06T13:15:20;96928.41;;;15.54;85.74
40117;BME280;25829;50.228;18.936;2023-08-06T13:18:22;96934.25;;;15.56;85.28
40117;BME280;25829;50.228;18.936;2023-08-06T13:21:23;96929.41;;;15.63;85.64
40117;BME280;25829;50.228;18.936;2023-08-06T13:24:24;96933.41;;;15.66;85.48
40117;BME280;25829;50.228;18.936;2023-08-06T13:27:24;96935.75;;;15.67;85.09
40117;BME280;25829;50.228;18.936;2023-08-06T13:30:25;96941.06;;;15.67;85.27
40117;BME280;25829;50.228;18.936;2023-08-06T13:33:28;96940.56;;;15.65;84.80
40117;BME280;25829;50.228;18.936;2023-08-06T13:36:31;96952.25;;;15.64;85.20
40117;BME280;25829;50.228;18.936;2023-08-06T13:39:32;96952.00;;;15.66;85.28
40117;BME280;25829;50.228;18.936;2023-08-06T13:42:34;96955.72;;;15.65;85.35
40117;BME280;25829;50.228;18.936;2023-08-06T13:45:35;96963.66;;;15.70;85.17
40117;BME280;25829;50.228;18.936;2023-08-06T13:48:37;96967.34;;;15.74;84.96
40117;BME280;25829;50.228;18.936;2023-08-06T13:51:38;96965.25;;;15.71;84.45
40117;BME280;25829;50.228;18.936;2023-08-06T13:54:39;96968.69;;;15.71;84.79
40117;BME280;25829;50.228;18.936;2023-08-06T13:57:39;96963.91;;;15.73;84.84
40117;BME280;25829;50.228;18.936;2023-08-06T14:00:41;96968.91;;;15.80;84.85
40117;BME280;25829;50.228;18.936;2023-08-06T14:03:42;96967.81;;;15.81;84.80
40117;BME280;25829;50.228;18.936;2023-08-06T14:06:46;96971.25;;;15.87;84.74
40117;BME280;25829;50.228;18.936;2023-08-06T14:09:46;96960.09;;;15.85;84.90
40117;BME280;25829;50.228;18.936;2023-08-06T14:12:47;96970.69;;;15.90;84.91
40117;BME280;25829;50.228;18.936;2023-08-06T14:15:48;96966.97;;;15.91;84.47
40117;BME280;25829;50.228;18.936;2023-08-06T14:18:49;96975.72;;;15.91;84.63
40117;BME280;25829;50.228;18.936;2023-08-06T14:21:50;96983.75;;;15.86;84.24
40117;BME280;25829;50.228;18.936;2023-08-06T14:24:51;97001.28;;;15.87;84.73
40117;BME280;25829;50.228;18.936;2023-08-06T14:27:51;96997.56;;;15.88;84.46
40117;BME280;25829;50.228;18.936;2023-08-06T14:30:52;97007.13;;;15.89;84.36
40117;BME280;25829;50.228;18.936;2023-08-06T14:33:53;97003.94;;;15.87;84.27
40117;BME280;25829;50.228;18.936;2023-08-06T14:36:54;97010.66;;;15.79;83.99
40117;BME280;25829;50.228;18.936;2023-08-06T14:39:54;97020.00;;;15.72;84.11
40117;BME280;25829;50.228;18.936;2023-08-06T14:42:55;97020.03;;;15.67;83.99
40117;BME280;25829;50.228;18.936;2023-08-06T14:45:56;97032.28;;;15.63;84.38
40117;BME280;25829;50.228;18.936;2023-08-06T14:48:57;97039.22;;;15.59;84.65
40117;BME280;25829;50.228;18.936;2023-08-06T14:51:58;97042.41;;;15.61;84.69
40117;BME280;25829;50.228;18.936;2023-08-06T14:55:00;97040.53;;;15.61;84.87
40117;BME280;25829;50.228;18.936;2023-08-06T14:58:05;97041.84;;;15.64;84.93
40117;BME280;25829;50.228;18.936;2023-08-06T15:01:05;97041.84;;;15.69;84.65
40117;BME280;25829;50.228;18.936;2023-08-06T15:04:06;97043.41;;;15.70;84.41
40117;BME280;25829;50.228;18.936;2023-08-06T15:07:15;97046.34;;;15.68;84.46
40117;BME280;25829;50.228;18.936;2023-08-06T15:10:16;97039.44;;;15.67;84.07
40117;BME280;25829;50.228;18.936;2023-08-06T15:13:17;97027.53;;;15.54;83.44
40117;BME280;25829;50.228;18.936;2023-08-06T15:16:21;97034.22;;;15.47;83.74
40117;BME280;25829;50.228;18.936;2023-08-06T15:19:21;97036.13;;;15.41;83.90
40117;BME280;25829;50.228;18.936;2023-08-06T15:22:45;97031.59;;;15.42;84.41
40117;BME280;25829;50.228;18.936;2023-08-06T15:25:52;97034.53;;;15.40;84.32
40117;BME280;25829;50.228;18.936;2023-08-06T15:52:11;97074.44;;;15.20;83.55
40117;BME280;25829;50.228;18.936;2023-08-06T15:59:43;97086.94;;;15.09;83.23
40117;BME280;25829;50.228;18.936;2023-08-06T16:03:02;97105.28;;;15.11;83.25
40117;BME280;25829;50.228;18.936;2023-08-06T16:20:28;97142.72;;;15.09;83.56
40117;BME280;25829;50.228;18.936;2023-08-06T16:27:42;97167.44;;;15.09;83.93
40117;BME280;25829;50.228;18.936;2023-08-06T16:31:21;97161.59;;;15.02;83.72
40117;BME280;25829;50.228;18.936;2023-08-06T16:34:25;97170.38;;;14.98;83.89
40117;BME280;25829;50.228;18.936;2023-08-06T16:37:29;97168.78;;;14.92;83.47
40117;BME280;25829;50.228;18.936;2023-08-06T16:40:32;97167.47;;;14.89;83.65
40117;BME280;25829;50.228;18.936;2023-08-06T16:43:33;97161.91;;;14.85;83.27
40117;BME280;25829;50.228;18.936;2023-08-06T16:46:37;97172.78;;;14.79;83.21
40117;BME280;25829;50.228;18.936;2023-08-06T16:49:38;97171.44;;;14.76;83.24
40117;BME280;25829;50.228;18.936;2023-08-06T16:53:10;97188.72;;;14.79;83.30
40117;BME280;25829;50.228;18.936;2023-08-06T16:56:52;97184.72;;;14.71;83.35
40117;BME280;25829;50.228;18.936;2023-08-06T16:59:52;97196.41;;;14.70;82.77
40117;BME280;25829;50.228;18.936;2023-08-06T17:11:08;97214.16;;;14.75;83.26
40117;BME280;25829;50.228;18.936;2023-08-06T17:14:13;97206.75;;;14.77;83.50
40117;BME280;25829;50.228;18.936;2023-08-06T17:17:32;97207.03;;;14.75;83.37
40117;BME280;25829;50.228;18.936;2023-08-06T17:20:33;97208.34;;;14.73;83.38
40117;BME280;25829;50.228;18.936;2023-08-06T17:23:35;97207.28;;;14.74;83.15
40117;BME280;25829;50.228;18.936;2023-08-06T17:27:07;97221.59;;;14.78;83.22
40117;BME280;25829;50.228;18.936;2023-08-06T17:33:51;97222.13;;;14.75;83.18
40117;BME280;25829;50.228;18.936;2023-08-06T17:36:52;97218.16;;;14.77;83.12
40117;BME280;25829;50.228;18.936;2023-08-06T17:39:53;97223.22;;;14.79;82.97
40117;BME280;25829;50.228;18.936;2023-08-06T17:46:27;97224.28;;;14.73;82.71
40117;BME280;25829;50.228;18.936;2023-08-06T17:49:58;97226.94;;;14.73;83.10
40117;BME280;25829;50.228;18.936;2023-08-06T17:53:09;97227.47;;;14.70;82.76
40117;BME280;25829;50.228;18.936;2023-08-06T17:56:13;97234.06;;;14.67;82.64
40117;BME280;25829;50.228;18.936;2023-08-06T17:59:25;97226.66;;;14.69;83.23
40117;BME280;25829;50.228;18.936;2023-08-06T18:06:02;97240.19;;;14.68;83.15
40117;BME280;25829;50.228;18.936;2023-08-06T18:09:03;97243.09;;;14.66;83.24
40117;BME280;25829;50.228;18.936;2023-08-06T18:12:22;97252.16;;;14.65;82.87
40117;BME280;25829;50.228;18.936;2023-08-06T18:15:30;97244.44;;;14.64;83.08
40117;BME280;25829;50.228;18.936;2023-08-06T18:22:04;97244.69;;;14.52;83.13
40117;BME280;25829;50.228;18.936;2023-08-06T18:25:10;97234.31;;;14.50;83.13
40117;BME280;25829;50.228;18.936;2023-08-06T18:28:20;97241.75;;;14.48;82.87
40117;BME280;25829;50.228;18.936;2023-08-06T18:31:25;97243.59;;;14.43;82.85
40117;BME280;25829;50.228;18.936;2023-08-06T18:34:29;97252.06;;;14.40;82.77
40117;BME280;25829;50.228;18.936;2023-08-06T18:37:30;97249.69;;;14.38;82.63
40117;BME280;25829;50.228;18.936;2023-08-06T18:40:31;97248.34;;;14.35;82.99
40117;BME280;25829;50.228;18.936;2023-08-06T18:43:35;97257.63;;;14.33;83.14
40117;BME280;25829;50.228;18.936;2023-08-06T18:46:42;97252.59;;;14.31;83.36
40117;BME280;25829;50.228;18.936;2023-08-06T18:49:43;97248.06;;;14.32;83.46
40117;BME280;25829;50.228;18.936;2023-08-06T18:52:49;97242.22;;;14.30;83.24
40117;BME280;25829;50.228;18.936;2023-08-06T18:55:56;97237.75;;;14.30;83.27
40117;BME280;25829;50.228;18.936;2023-08-06T18:58:57;97244.09;;;14.29;83.16
40117;BME280;25829;50.228;18.936;2023-08-06T19:02:02;97246.47;;;14.26;83.12
40117;BME280;25829;50.228;18.936;2023-08-06T19:05:03;97249.59;;;14.23;83.32
40117;BME280;25829;50.228;18.936;2023-08-06T19:08:05;97246.94;;;14.23;83.33
40117;BME280;25829;50.228;18.936;2023-08-06T19:11:06;97248.31;;;14.25;83.58
40117;BME280;25829;50.228;18.936;2023-08-06T19:14:10;97237.19;;;14.28;83.45
40117;BME280;25829;50.228;18.936;2023-08-06T19:17:19;97256.56;;;14.29;83.32
40117;BME280;25829;50.228;18.936;2023-08-06T19:20:20;97261.06;;;14.28;83.52
40117;BME280;25829;50.228;18.936;2023-08-06T19:23:21;97261.59;;;14.25;83.50
40117;BME280;25829;50.228;18.936;2023-08-06T19:26:23;97260.28;;;14.28;83.87
40117;BME280;25829;50.228;18.936;2023-08-06T19:29:25;97262.38;;;14.26;83.65
40117;BME280;25829;50.228;18.936;2023-08-06T19:32:25;97267.38;;;14.22;83.59
40117;BME280;25829;50.228;18.936;2023-08-06T19:38:56;97272.91;;;14.15;83.99
40117;BME280;25829;50.228;18.936;2023-08-06T19:41:56;97275.31;;;14.17;84.18
40117;BME280;25829;50.228;18.936;2023-08-06T19:44:57;97263.66;;;14.18;84.22
40117;BME280;25829;50.228;18.936;2023-08-06T19:47:58;97275.06;;;14.19;84.04
40117;BME280;25829;50.228;18.936;2023-08-06T19:50:59;97277.97;;;14.22;83.94
40117;BME280;25829;50.228;18.936;2023-08-06T19:54:06;97280.91;;;14.21;83.79
40117;BME280;25829;50.228;18.936;2023-08-06T19:57:25;97280.34;;;14.19;83.85
40117;BME280;25829;50.228;18.936;2023-08-06T20:00:30;97287.25;;;14.14;84.28
40117;BME280;25829;50.228;18.936;2023-08-06T20:03:30;97282.22;;;14.18;84.21
40117;BME280;25829;50.228;18.936;2023-08-06T20:06:32;97276.66;;;14.20;84.26
40117;BME280;25829;50.228;18.936;2023-08-06T20:09:33;97274.25;;;14.18;83.88
40117;BME280;25829;50.228;18.936;2023-08-06T20:12:33;97277.19;;;14.22;84.50
40117;BME280;25829;50.228;18.936;2023-08-06T20:15:40;97279.59;;;14.23;84.08
40117;BME280;25829;50.228;18.936;2023-08-06T20:18:41;97272.94;;;14.21;83.97
40117;BME280;25829;50.228;18.936;2023-08-06T20:21:48;97274.06;;;14.25;84.24
40117;BME280;25829;50.228;18.936;2023-08-06T20:24:50;97266.66;;;14.27;84.36
40117;BME280;25829;50.228;18.936;2023-08-06T20:27:51;97265.03;;;14.26;84.13
40117;BME280;25829;50.228;18.936;2023-08-06T20:30:55;97269.78;;;14.24;83.99
40117;BME280;25829;50.228;18.936;2023-08-06T20:40:59;97262.31;;;14.15;83.91
40117;BME280;25829;50.228;18.936;2023-08-06T20:44:15;97274.53;;;14.17;83.88
40117;BME280;25829;50.228;18.936;2023-08-06T20:47:22;97273.75;;;14.16;83.64
40117;BME280;25829;50.228;18.936;2023-08-06T20:54:23;97289.88;;;14.09;83.71
40117;BME280;25829;50.228;18.936;2023-08-06T21:21:22;97290.59;;;13.95;83.98
40117;BME280;25829;50.228;18.936;2023-08-06T21:24:23;97296.97;;;13.94;83.99
40117;BME280;25829;50.228;18.936;2023-08-06T21:27:34;97288.50;;;13.97;84.14